createdAt,value
2018-08-12T00:00:24.689Z,1.60
2018-08-12T00:02:53.145Z,1.55
2018-08-12T00:05:20.800Z,1.40
2018-08-12T00:07:48.411Z,1.40
2018-08-12T00:12:54.949Z,1.67
2018-08-12T00:15:22.928Z,1.60
2018-08-12T00:17:50.565Z,1.50
2018-08-12T00:20:20.102Z,1.45
2018-08-12T00:22:49.038Z,1.50
2018-08-12T00:25:18.105Z,1.60
2018-08-12T00:27:45.722Z,1.52
2018-08-12T00:30:14.956Z,1.50
2018-08-12T00:32:42.753Z,1.65
2018-08-12T00:35:12.105Z,1.40
2018-08-12T00:37:40.428Z,1.55
2018-08-12T00:40:09.929Z,1.50
2018-08-12T00:42:37.723Z,1.45
2018-08-12T00:45:10.086Z,1.60
2018-08-12T00:47:37.754Z,1.25
2018-08-12T00:50:06.936Z,1.15
2018-08-12T00:52:34.543Z,1.55
2018-08-12T00:55:02.236Z,1.50
2018-08-12T00:57:29.874Z,1.30
2018-08-12T00:59:57.503Z,1.50
2018-08-12T01:02:25.184Z,1.30
2018-08-12T01:04:52.785Z,1.50
2018-08-12T01:07:20.447Z,1.42
2018-08-12T01:09:48.057Z,1.20
2018-08-12T01:12:15.676Z,1.30
2018-08-12T01:14:43.341Z,1.30
2018-08-12T01:17:10.949Z,1.17
2018-08-12T01:19:38.598Z,1.50
2018-08-12T01:22:06.242Z,1.60
2018-08-12T01:24:33.850Z,1.15
2018-08-12T01:27:01.447Z,1.32
2018-08-12T01:29:29.066Z,1.30
2018-08-12T01:31:57.781Z,1.20
2018-08-12T01:34:25.445Z,1.20
2018-08-12T01:36:53.037Z,1.12
2018-08-12T01:39:20.651Z,1.10
2018-08-12T01:41:48.238Z,1.20
2018-08-12T01:44:15.862Z,1.17
2018-08-12T01:46:43.463Z,1.10
2018-08-12T01:49:11.116Z,1.00
2018-08-12T01:51:38.796Z,1.20
2018-08-12T01:54:06.470Z,1.15
2018-08-12T01:56:34.121Z,1.10
2018-08-12T01:59:01.746Z,1.20
2018-08-12T02:01:29.373Z,0.90
2018-08-12T02:03:57.012Z,1.00
2018-08-12T02:06:24.617Z,1.00
2018-08-12T02:08:52.247Z,1.20
2018-08-12T02:11:19.850Z,1.00
2018-08-12T02:13:47.434Z,1.00
2018-08-12T02:16:15.150Z,1.10
2018-08-12T02:18:42.723Z,1.12
2018-08-12T02:21:10.362Z,1.10
2018-08-12T02:23:38.061Z,0.90
2018-08-12T02:26:05.723Z,0.95
2018-08-12T02:28:33.359Z,1.10
2018-08-12T02:31:00.973Z,0.90
2018-08-12T02:33:28.695Z,1.00
2018-08-12T02:35:56.299Z,1.10
2018-08-12T02:38:23.896Z,1.42
2018-08-12T02:40:51.509Z,1.32
2018-08-12T02:43:19.156Z,1.12
2018-08-12T02:45:46.783Z,1.12
2018-08-12T02:48:14.375Z,1.25
2018-08-12T02:50:42.037Z,0.93
2018-08-12T02:53:09.641Z,1.10
2018-08-12T02:55:37.217Z,1.02
2018-08-12T02:58:04.857Z,1.50
2018-08-12T03:00:32.493Z,0.90
2018-08-12T03:03:00.114Z,1.50
2018-08-12T03:05:27.708Z,1.22
2018-08-12T03:07:55.305Z,1.20
2018-08-12T03:10:22.949Z,1.42
2018-08-12T03:12:50.580Z,1.30
2018-08-12T03:15:18.212Z,1.00
2018-08-12T03:17:45.833Z,1.30
2018-08-12T03:20:13.464Z,1.30
2018-08-12T03:22:41.054Z,1.27
2018-08-12T03:25:09.889Z,1.50
2018-08-12T03:27:37.548Z,1.87
2018-08-12T03:30:06.631Z,1.17
2018-08-12T03:32:34.235Z,1.55
2018-08-12T03:35:01.869Z,1.82
2018-08-12T03:37:29.482Z,1.82
2018-08-12T03:39:57.094Z,1.85
2018-08-12T03:45:05.663Z,2.33
2018-08-12T03:47:33.298Z,1.82
2018-08-12T03:50:00.913Z,2.40
2018-08-12T03:52:28.595Z,2.05
2018-08-12T03:54:56.205Z,1.77
2018-08-12T03:57:23.845Z,2.12
2018-08-12T03:59:51.481Z,1.80
2018-08-12T04:02:19.211Z,2.02
2018-08-12T04:04:46.758Z,2.30
2018-08-12T04:07:14.404Z,2.15
2018-08-12T04:09:42.047Z,2.27
2018-08-12T04:12:09.666Z,2.70
2018-08-12T04:14:37.350Z,2.30
2018-08-12T04:17:05.032Z,2.20
2018-08-12T04:19:32.657Z,3.35
2018-08-12T04:22:00.838Z,3.12
2018-08-12T04:24:28.478Z,1.90
2018-08-12T04:26:56.099Z,2.37
2018-08-12T04:29:23.741Z,3.10
2018-08-12T04:31:51.394Z,3.02
2018-08-12T04:34:18.988Z,2.25
2018-08-12T04:36:46.638Z,2.77
2018-08-12T04:39:14.321Z,1.98
2018-08-12T04:41:42.916Z,2.33
2018-08-12T04:44:11.365Z,2.00
2018-08-12T04:46:39.009Z,1.87
2018-08-12T04:49:07.874Z,1.70
2018-08-12T04:51:35.565Z,2.22
2018-08-12T04:54:03.209Z,2.08
2018-08-12T04:56:30.872Z,1.62
2018-08-12T04:58:58.502Z,1.72
2018-08-12T05:01:26.169Z,2.60
2018-08-12T05:03:53.769Z,2.20
2018-08-12T05:06:21.423Z,2.17
2018-08-12T05:08:49.117Z,2.20
2018-08-12T05:11:16.913Z,2.60
2018-08-12T05:13:44.528Z,1.92
2018-08-12T05:16:12.129Z,2.17
2018-08-12T05:18:39.694Z,3.15
2018-08-12T05:21:07.305Z,2.45
2018-08-12T05:23:34.885Z,2.90
2018-08-12T05:26:02.503Z,1.92
2018-08-12T05:28:30.178Z,1.87
2018-08-12T05:30:57.772Z,1.67
2018-08-12T05:33:25.385Z,2.50
2018-08-12T05:35:53.009Z,2.80
2018-08-12T05:38:20.712Z,2.42
2018-08-12T05:40:48.354Z,2.50
2018-08-12T05:43:15.960Z,2.60
2018-08-12T05:45:44.302Z,2.00
2018-08-12T05:48:11.945Z,2.20
2018-08-12T05:50:39.564Z,1.90
2018-08-12T05:53:07.221Z,2.12
2018-08-12T05:55:34.831Z,1.95
2018-08-12T05:58:02.566Z,2.27
2018-08-12T06:00:30.379Z,2.60
2018-08-12T06:02:58.033Z,2.22
2018-08-12T06:05:25.645Z,2.92
2018-08-12T06:07:53.251Z,2.40
2018-08-12T06:10:20.866Z,2.10
2018-08-12T06:12:48.490Z,1.77
2018-08-12T06:15:17.061Z,2.27
2018-08-12T06:17:45.122Z,2.00
2018-08-12T06:20:13.611Z,2.17
2018-08-12T06:22:41.189Z,1.62
2018-08-12T06:25:09.878Z,2.60
2018-08-12T06:27:37.522Z,1.95
2018-08-12T06:30:09.153Z,2.52
2018-08-12T06:32:36.831Z,2.35
2018-08-12T06:35:04.866Z,2.80
2018-08-12T06:37:32.513Z,1.80
2018-08-12T06:40:00.166Z,2.90
2018-08-12T06:42:27.805Z,1.90
2018-08-12T06:44:55.446Z,2.90
2018-08-12T06:47:23.309Z,2.40
2018-08-12T06:49:50.974Z,3.08
2018-08-12T06:52:18.616Z,2.10
2018-08-12T06:54:46.257Z,2.85
2018-08-12T06:57:15.873Z,2.50
2018-08-12T06:59:43.498Z,2.10
2018-08-12T07:02:11.231Z,2.35
2018-08-12T07:04:38.903Z,2.17
2018-08-12T07:07:07.183Z,1.80
2018-08-12T07:09:34.803Z,2.10
2018-08-12T07:12:02.474Z,2.15
2018-08-12T07:14:30.182Z,2.10
2018-08-12T07:16:57.762Z,1.70
2018-08-12T07:19:25.428Z,2.77
2018-08-12T07:21:53.179Z,1.95
2018-08-12T07:24:20.847Z,2.62
2018-08-12T07:26:48.667Z,2.65
2018-08-12T07:29:17.257Z,2.95
2018-08-12T07:31:44.891Z,2.75
2018-08-12T07:34:12.524Z,2.80
2018-08-12T07:36:40.188Z,3.00
2018-08-12T07:39:09.425Z,2.95
2018-08-12T07:41:37.206Z,3.02
2018-08-12T07:44:05.054Z,2.40
2018-08-12T07:46:33.218Z,2.80
2018-08-12T07:49:01.710Z,2.80
2018-08-12T07:51:30.824Z,2.75
2018-08-12T07:53:58.668Z,2.90
2018-08-12T07:56:26.658Z,3.20
2018-08-12T07:58:54.341Z,2.83
2018-08-12T08:01:22.159Z,2.67
2018-08-12T08:03:49.872Z,2.60
2018-08-12T08:06:17.707Z,2.40
2018-08-12T08:08:45.525Z,2.30
2018-08-12T08:11:13.212Z,2.40
2018-08-12T08:13:41.285Z,2.17
2018-08-12T08:16:08.990Z,2.80
2018-08-12T08:18:37.367Z,3.20
2018-08-12T08:21:05.153Z,2.77
2018-08-12T08:23:33.008Z,2.55
2018-08-12T08:26:00.730Z,2.47
2018-08-12T08:28:28.405Z,2.37
2018-08-12T08:30:56.194Z,2.17
2018-08-12T08:33:23.890Z,2.33
2018-08-12T08:35:51.569Z,2.60
2018-08-12T08:38:19.292Z,2.47
2018-08-12T08:40:46.931Z,2.62
2018-08-12T08:43:14.623Z,2.92
2018-08-12T08:45:42.385Z,2.67
2018-08-12T08:48:10.361Z,2.37
2018-08-12T08:50:38.041Z,2.02
2018-08-12T08:53:05.846Z,2.60
2018-08-12T08:55:33.585Z,2.50
2018-08-12T08:58:01.325Z,2.33
2018-08-12T09:00:29.025Z,2.58
2018-08-12T09:02:56.738Z,2.42
2018-08-12T09:05:24.441Z,2.55
2018-08-12T09:07:53.777Z,2.35
2018-08-12T09:10:21.649Z,2.37
2018-08-12T09:12:50.073Z,2.05
2018-08-12T09:15:19.627Z,2.33
2018-08-12T09:17:50.085Z,1.62
2018-08-12T09:20:19.273Z,1.98
2018-08-12T09:22:48.106Z,2.10
2018-08-12T09:25:16.778Z,2.15
2018-08-12T09:27:45.659Z,1.80
2018-08-12T09:30:16.123Z,1.60
2018-08-12T09:32:44.817Z,1.45
2018-08-12T09:35:12.463Z,2.22
2018-08-12T09:37:40.267Z,1.60
2018-08-12T09:40:10.966Z,1.80
2018-08-12T09:42:39.093Z,1.60
2018-08-12T09:45:09.786Z,1.50
2018-08-12T09:47:37.951Z,1.50
2018-08-12T09:50:06.722Z,1.50
2018-08-12T09:52:34.722Z,1.30
2018-08-12T09:55:02.721Z,1.57
2018-08-12T09:57:30.616Z,1.20
2018-08-12T09:59:58.388Z,1.32
2018-08-12T10:02:26.229Z,1.20
2018-08-12T10:04:54.858Z,1.30
2018-08-12T10:07:23.553Z,1.32
2018-08-12T10:09:51.269Z,1.20
2018-08-12T10:12:18.898Z,1.15
2018-08-12T10:14:46.633Z,0.98
2018-08-12T10:17:14.346Z,1.30
2018-08-12T10:19:42.110Z,1.40
2018-08-12T10:22:10.661Z,1.47
2018-08-12T10:24:38.379Z,1.52
2018-08-12T10:27:07.047Z,1.07
2018-08-12T10:29:34.754Z,1.50
2018-08-12T10:32:02.463Z,1.17
2018-08-12T10:34:30.193Z,1.10
2018-08-12T10:36:57.853Z,1.30
2018-08-12T10:39:26.483Z,1.37
2018-08-12T10:41:54.241Z,1.30
2018-08-12T10:44:22.388Z,1.47
2018-08-12T10:46:50.253Z,1.30
2018-08-12T10:49:19.818Z,1.50
2018-08-12T10:51:56.117Z,1.20
2018-08-12T10:54:24.338Z,1.30
2018-08-12T10:56:52.277Z,1.35
2018-08-12T10:59:21.116Z,1.30
2018-08-12T11:01:51.113Z,1.50
2018-08-12T11:04:19.598Z,1.50
2018-08-12T11:08:55.529Z,1.42
2018-08-12T11:11:23.408Z,1.47
2018-08-12T11:13:51.796Z,1.45
2018-08-12T11:16:19.637Z,1.20
2018-08-12T11:18:48.352Z,1.42
2018-08-12T11:21:16.904Z,1.15
2018-08-12T11:23:44.630Z,1.30
2018-08-12T11:26:12.359Z,1.12
2018-08-12T11:28:40.727Z,1.15
2018-08-12T11:31:08.393Z,1.40
2018-08-12T11:33:36.195Z,1.30
2018-08-12T11:36:03.831Z,1.52
2018-08-12T11:38:32.451Z,1.42
2018-08-12T11:41:00.145Z,1.30
2018-08-12T11:43:28.380Z,1.20
2018-08-12T11:45:56.831Z,1.30
2018-08-12T11:48:24.583Z,1.15
2018-08-12T11:50:53.566Z,1.20
2018-08-12T11:53:21.430Z,1.30
2018-08-12T11:55:49.249Z,1.10
2018-08-12T11:58:16.953Z,1.20
2018-08-12T12:00:44.753Z,0.93
2018-08-12T12:03:12.969Z,1.40
2018-08-12T12:05:40.685Z,1.10
2018-08-12T12:08:09.959Z,0.85
2018-08-12T12:10:38.349Z,1.00
2018-08-12T12:13:05.995Z,1.00
2018-08-12T12:15:33.623Z,1.00
2018-08-12T12:18:01.363Z,1.00
2018-08-12T12:20:28.989Z,1.00
2018-08-12T12:22:56.622Z,1.52
2018-08-12T12:25:24.235Z,1.10
2018-08-12T12:27:51.834Z,1.07
2018-08-12T12:30:20.781Z,1.05
2018-08-12T12:32:49.743Z,1.10
2018-08-12T12:35:19.544Z,1.20
2018-08-12T12:37:48.324Z,0.90
2018-08-12T12:40:17.244Z,1.10
2018-08-12T12:42:45.858Z,0.88
2018-08-12T12:45:13.991Z,1.00
2018-08-12T12:47:41.970Z,1.12
2018-08-12T12:50:14.239Z,1.10
2018-08-12T12:52:41.778Z,1.02
2018-08-12T12:55:09.497Z,0.90
2018-08-12T12:57:37.102Z,0.90
2018-08-12T13:00:08.031Z,0.75
2018-08-12T13:02:35.649Z,0.90
2018-08-12T13:05:03.799Z,0.80
2018-08-12T13:07:31.414Z,1.02
2018-08-12T13:09:59.064Z,0.80
2018-08-12T13:12:26.684Z,0.75
2018-08-12T13:14:54.299Z,0.95
2018-08-12T13:17:21.902Z,1.00
2018-08-12T13:19:49.526Z,0.70
2018-08-12T13:22:17.158Z,0.90
2018-08-12T13:24:44.784Z,0.85
2018-08-12T13:27:12.424Z,0.90
2018-08-12T13:29:40.111Z,0.90
2018-08-12T13:32:07.788Z,0.80
2018-08-12T13:34:35.407Z,0.95
2018-08-12T13:37:03.078Z,0.82
2018-08-12T13:39:30.722Z,0.80
2018-08-12T13:41:58.387Z,0.82
2018-08-12T13:44:26.446Z,0.90
2018-08-12T13:46:54.082Z,0.70
2018-08-12T13:49:21.754Z,0.80
2018-08-12T13:51:50.103Z,0.80
2018-08-12T13:54:17.821Z,0.90
2018-08-12T13:56:45.440Z,0.80
2018-08-12T13:59:13.059Z,0.80
2018-08-12T14:01:40.663Z,0.70
2018-08-12T14:04:08.299Z,0.72
2018-08-12T14:06:35.929Z,0.85
2018-08-12T14:09:05.978Z,0.88
2018-08-12T14:11:33.634Z,0.80
2018-08-12T14:14:01.358Z,0.90
2018-08-12T14:16:28.927Z,0.70
2018-08-12T14:18:56.558Z,0.80
2018-08-12T14:21:24.214Z,0.82
2018-08-12T14:23:52.734Z,1.00
2018-08-12T14:26:20.374Z,0.90
2018-08-12T14:28:48.008Z,0.88
2018-08-12T14:31:15.608Z,0.80
2018-08-12T14:33:43.259Z,0.70
2018-08-12T14:36:10.894Z,0.80
2018-08-12T14:38:38.570Z,0.80
2018-08-12T14:41:06.266Z,0.90
2018-08-12T14:43:33.911Z,1.02
2018-08-12T14:46:01.537Z,0.98
2018-08-12T14:48:29.150Z,1.00
2018-08-12T14:50:56.779Z,0.80
2018-08-12T14:53:24.418Z,0.90
2018-08-12T14:55:52.055Z,0.70
2018-08-12T14:58:19.681Z,0.90
2018-08-12T15:00:47.301Z,0.78
2018-08-12T15:03:14.976Z,1.00
2018-08-12T15:05:42.581Z,0.90
2018-08-12T15:08:10.178Z,0.90
2018-08-12T15:10:37.801Z,0.70
2018-08-12T15:13:05.521Z,0.90
2018-08-12T15:15:33.154Z,1.00
2018-08-12T15:18:00.839Z,0.70
2018-08-12T15:20:28.509Z,0.82
2018-08-12T15:22:56.240Z,0.80
2018-08-12T15:25:23.811Z,1.00
2018-08-12T15:27:51.450Z,1.00
2018-08-12T15:30:19.049Z,0.90
2018-08-12T15:32:46.895Z,0.90
2018-08-12T15:35:14.517Z,0.80
2018-08-12T15:37:42.149Z,1.00
2018-08-12T15:40:12.995Z,0.90
2018-08-12T15:42:41.134Z,0.80
2018-08-12T15:45:12.493Z,0.82
2018-08-12T15:47:40.894Z,1.02
2018-08-12T15:50:09.361Z,0.90
2018-08-12T15:52:37.143Z,0.95
2018-08-12T15:55:05.254Z,0.90
2018-08-12T15:57:32.935Z,0.90
2018-08-12T16:00:00.581Z,0.78
2018-08-12T16:02:28.289Z,1.00
2018-08-12T16:04:55.889Z,0.98
2018-08-12T16:07:23.477Z,0.80
2018-08-12T16:09:51.047Z,0.90
2018-08-12T16:12:18.680Z,0.80
2018-08-12T16:14:46.306Z,0.80
2018-08-12T16:17:13.958Z,0.90
2018-08-12T16:19:42.635Z,0.90
2018-08-12T16:22:10.256Z,1.10
2018-08-12T16:24:37.968Z,0.90
2018-08-12T16:27:05.613Z,1.35
2018-08-12T16:29:33.231Z,1.12
2018-08-12T16:32:00.910Z,1.00
2018-08-12T16:34:28.552Z,1.00
2018-08-12T16:36:56.199Z,0.90
2018-08-12T16:39:23.877Z,0.98
2018-08-12T16:41:51.515Z,1.00
2018-08-12T16:44:19.131Z,1.40
2018-08-12T16:46:46.785Z,1.05
2018-08-12T16:49:14.533Z,0.90
2018-08-12T16:51:42.126Z,0.93
2018-08-12T16:54:09.893Z,0.93
2018-08-12T16:56:37.577Z,1.00
2018-08-12T16:59:05.187Z,1.02
2018-08-12T17:01:32.831Z,1.20
2018-08-12T17:04:00.452Z,1.30
2018-08-12T17:06:28.058Z,0.93
2018-08-12T17:08:55.710Z,0.90
2018-08-12T17:11:23.375Z,1.00
2018-08-12T17:13:51.042Z,0.98
2018-08-12T17:16:18.722Z,1.00
2018-08-12T17:18:46.448Z,1.00
2018-08-12T17:21:14.106Z,1.10
2018-08-12T17:23:41.738Z,1.10
2018-08-12T17:26:09.374Z,1.17
2018-08-12T17:28:37.057Z,0.90
2018-08-12T17:31:04.769Z,1.00
2018-08-12T17:33:32.458Z,1.10
2018-08-12T17:36:00.057Z,1.00
2018-08-12T17:38:27.781Z,1.20
2018-08-12T17:40:55.423Z,1.40
2018-08-12T17:43:23.052Z,1.30
2018-08-12T17:45:51.658Z,0.93
2018-08-12T17:48:19.341Z,0.90
2018-08-12T17:50:47.063Z,1.30
2018-08-12T17:53:14.754Z,0.93
2018-08-12T17:55:42.427Z,1.00
2018-08-12T17:58:10.150Z,1.02
2018-08-12T18:00:37.829Z,1.00
2018-08-12T18:03:05.514Z,1.02
2018-08-12T18:05:33.134Z,1.20
2018-08-12T18:08:00.779Z,0.90
2018-08-12T18:10:28.462Z,0.98
2018-08-12T18:12:56.149Z,1.15
2018-08-12T18:15:23.757Z,1.07
2018-08-12T18:17:51.382Z,0.98
2018-08-12T18:20:19.019Z,1.15
2018-08-12T18:22:46.648Z,1.12
2018-08-12T18:25:14.303Z,1.00
2018-08-12T18:27:41.911Z,0.95
2018-08-12T18:30:11.957Z,1.20
2018-08-12T18:32:39.673Z,1.12
2018-08-12T18:35:08.026Z,1.00
2018-08-12T18:37:35.632Z,1.20
2018-08-12T18:40:04.640Z,1.00
2018-08-12T18:42:32.305Z,1.07
2018-08-12T18:44:59.954Z,1.20
2018-08-12T18:47:27.538Z,1.20
2018-08-12T18:49:55.278Z,1.20
2018-08-12T18:52:22.890Z,1.10
2018-08-12T18:54:50.498Z,1.25
2018-08-12T18:57:18.124Z,1.00
2018-08-12T18:59:45.742Z,1.40
2018-08-12T19:02:13.393Z,1.00
2018-08-12T19:04:41.039Z,1.30
2018-08-12T19:07:08.719Z,1.35
2018-08-12T19:09:36.348Z,1.30
2018-08-12T19:12:04.026Z,1.00
2018-08-12T19:14:31.635Z,1.30
2018-08-12T19:16:59.278Z,1.30
2018-08-12T19:19:26.918Z,1.30
2018-08-12T19:21:54.648Z,1.10
2018-08-12T19:24:22.278Z,1.10
2018-08-12T19:26:49.916Z,1.37
2018-08-12T19:29:17.559Z,1.30
2018-08-12T19:31:45.134Z,1.32
2018-08-12T19:34:12.745Z,1.30
2018-08-12T19:36:40.394Z,1.27
2018-08-12T19:39:09.685Z,1.00
2018-08-12T19:41:37.270Z,1.10
2018-08-12T19:44:04.909Z,1.30
2018-08-12T19:46:32.517Z,1.20
2018-08-12T19:49:00.222Z,1.35
2018-08-12T19:51:27.955Z,1.35
2018-08-12T19:53:55.826Z,1.15
2018-08-12T19:56:23.553Z,1.02
2018-08-12T19:58:51.172Z,1.32
2018-08-12T20:01:18.743Z,1.40
2018-08-12T20:03:46.325Z,1.20
2018-08-12T20:06:13.957Z,1.20
2018-08-12T20:08:41.887Z,1.35
2018-08-12T20:11:09.475Z,1.35
2018-08-12T20:13:37.107Z,1.40
2018-08-12T20:16:04.893Z,1.40
2018-08-12T20:18:32.588Z,1.32
2018-08-12T20:21:00.186Z,1.20
2018-08-12T20:23:27.814Z,1.30
2018-08-12T20:25:55.575Z,1.30
2018-08-12T20:28:23.212Z,1.32
2018-08-12T20:30:50.806Z,1.45
2018-08-12T20:33:18.405Z,1.35
2018-08-12T20:35:46.006Z,1.47
2018-08-12T20:38:13.648Z,1.37
2018-08-12T20:40:41.263Z,1.30
2018-08-12T20:43:08.923Z,1.40
2018-08-12T20:45:37.159Z,1.45
2018-08-12T20:48:04.964Z,1.30
2018-08-12T20:50:32.558Z,1.65
2018-08-12T20:53:00.170Z,1.32
2018-08-12T20:55:27.810Z,1.50
2018-08-12T20:57:55.430Z,1.55
2018-08-12T21:00:23.001Z,1.60
2018-08-12T21:02:50.607Z,1.50
2018-08-12T21:05:18.239Z,1.40
2018-08-12T21:07:45.937Z,1.50
2018-08-12T21:10:13.565Z,1.72
2018-08-12T21:12:41.672Z,1.35
2018-08-12T21:15:09.300Z,1.30
2018-08-12T21:17:37.010Z,1.52
2018-08-12T21:20:05.150Z,1.52
2018-08-12T21:22:32.785Z,1.40
2018-08-12T21:25:00.614Z,1.62
2018-08-12T21:27:28.215Z,1.82
2018-08-12T21:29:55.821Z,1.17
2018-08-12T21:32:23.450Z,1.60
2018-08-12T21:34:51.059Z,1.60
2018-08-12T21:37:18.642Z,1.52
2018-08-12T21:39:46.413Z,1.62
2018-08-12T21:42:14.019Z,1.32
2018-08-12T21:44:41.634Z,1.40
2018-08-12T21:47:09.255Z,1.32
2018-08-12T21:49:36.878Z,1.32
2018-08-12T21:52:04.550Z,1.47
2018-08-12T21:54:32.170Z,1.17
2018-08-12T21:56:59.874Z,1.35
2018-08-12T21:59:27.481Z,1.60
2018-08-12T22:01:55.141Z,1.50
2018-08-12T22:04:22.729Z,1.70
2018-08-12T22:06:50.374Z,1.35
2018-08-12T22:09:18.020Z,1.50
2018-08-12T22:11:45.697Z,1.50
2018-08-12T22:14:13.321Z,1.40
2018-08-12T22:16:40.943Z,1.52
2018-08-12T22:19:08.594Z,1.50
2018-08-12T22:21:36.243Z,1.20
2018-08-12T22:24:03.935Z,1.40
2018-08-12T22:26:31.546Z,1.42
2018-08-12T22:28:59.164Z,1.30
2018-08-12T22:31:26.847Z,1.45
2018-08-12T22:33:54.483Z,1.40
2018-08-12T22:36:22.094Z,1.30
2018-08-12T22:38:49.702Z,1.20
2018-08-12T22:41:17.313Z,1.30
2018-08-12T22:43:44.891Z,1.50
2018-08-12T22:46:12.477Z,1.62
2018-08-12T22:48:40.102Z,1.45
2018-08-12T22:51:07.717Z,1.52
2018-08-12T22:53:35.401Z,1.47
2018-08-12T22:56:03.058Z,1.47
2018-08-12T22:58:30.698Z,1.47
2018-08-12T23:00:58.354Z,1.50
2018-08-12T23:03:26.017Z,1.50
2018-08-12T23:05:53.638Z,1.50
2018-08-12T23:08:21.305Z,1.40
2018-08-12T23:10:48.929Z,1.40
2018-08-12T23:13:16.561Z,1.65
2018-08-12T23:16:26.658Z,1.42
2018-08-12T23:18:54.338Z,1.35
2018-08-12T23:21:22.206Z,1.65
2018-08-12T23:23:50.960Z,1.40
2018-08-12T23:26:19.845Z,1.70
2018-08-12T23:28:47.492Z,1.67
2018-08-12T23:31:15.154Z,1.37
2018-08-12T23:33:42.760Z,1.20
2018-08-12T23:36:10.727Z,1.70
2018-08-12T23:38:38.478Z,1.35
2018-08-12T23:41:07.202Z,1.77
2018-08-12T23:43:34.837Z,1.50
2018-08-12T23:46:02.481Z,1.50
2018-08-12T23:48:30.540Z,1.40
2018-08-12T23:50:58.809Z,1.40
2018-08-12T23:53:26.433Z,1.50
2018-08-12T23:55:55.214Z,1.30
2018-08-12T23:58:22.853Z,1.32
